sensor_id;sensor_type;location;lat;lon;timestamp;temperature;humidity
15452;DHT22;7827;53.594;9.938;2022-08-20T00:02:13;19.80;99.90
15452;DHT22;7827;53.594;9.938;2022-08-20T00:04:43;19.80;99.90
15452;DHT22;7827;53.594;9.938;2022-08-20T00:07:12;19.80;99.90
15452;DHT22;7827;53.594;9.938;2022-08-20T00:09:42;19.80;99.90
15452;DHT22;7827;53.594;9.938;2022-08-20T00:12:14;19.90;99.90
15452;DHT22;7827;53.594;9.938;2022-08-20T00:14:43;19.80;99.90
15452;DHT22;7827;53.594;9.938;2022-08-20T00:17:11;19.80;99.90
15452;DHT22;7827;53.594;9.938;2022-08-20T00:19:40;19.90;99.90
15452;DHT22;7827;53.594;9.938;2022-08-20T00:22:09;19.90;99.90
15452;DHT22;7827;53.594;9.938;2022-08-20T00:24:39;19.90;99.90
15452;DHT22;7827;53.594;9.938;2022-08-20T00:27:07;19.90;99.90
15452;DHT22;7827;53.594;9.938;2022-08-20T00:29:35;19.80;99.90
15452;DHT22;7827;53.594;9.938;2022-08-20T00:32:04;19.90;99.90
15452;DHT22;7827;53.594;9.938;2022-08-20T00:34:32;19.80;99.90
15452;DHT22;7827;53.594;9.938;2022-08-20T00:37:00;19.80;99.90
15452;DHT22;7827;53.594;9.938;2022-08-20T00:39:30;19.90;99.90
15452;DHT22;7827;53.594;9.938;2022-08-20T00:41:58;19.90;99.90
15452;DHT22;7827;53.594;9.938;2022-08-20T00:44:28;19.90;99.90
15452;DHT22;7827;53.594;9.938;2022-08-20T00:46:56;19.90;99.90
15452;DHT22;7827;53.594;9.938;2022-08-20T00:49:27;19.90;99.90
15452;DHT22;7827;53.594;9.938;2022-08-20T00:51:59;19.90;99.90
15452;DHT22;7827;53.594;9.938;2022-08-20T00:54:37;19.90;99.90
15452;DHT22;7827;53.594;9.938;2022-08-20T00:57:11;19.90;99.90
15452;DHT22;7827;53.594;9.938;2022-08-20T00:59:49;19.90;99.90
15452;DHT22;7827;53.594;9.938;2022-08-20T01:02:21;19.90;99.90
15452;DHT22;7827;53.594;9.938;2022-08-20T01:04:54;19.90;99.90
15452;DHT22;7827;53.594;9.938;2022-08-20T01:07:25;19.90;99.90
15452;DHT22;7827;53.594;9.938;2022-08-20T01:10:00;19.90;99.90
15452;DHT22;7827;53.594;9.938;2022-08-20T01:12:31;19.90;99.90
15452;DHT22;7827;53.594;9.938;2022-08-20T01:15:00;19.80;99.90
15452;DHT22;7827;53.594;9.938;2022-08-20T01:17:34;19.90;99.90
15452;DHT22;7827;53.594;9.938;2022-08-20T01:20:11;19.80;99.90
15452;DHT22;7827;53.594;9.938;2022-08-20T01:22:47;19.90;99.90
15452;DHT22;7827;53.594;9.938;2022-08-20T01:25:44;19.80;99.90
15452;DHT22;7827;53.594;9.938;2022-08-20T01:28:19;19.80;99.90
15452;DHT22;7827;53.594;9.938;2022-08-20T01:30:50;19.80;99.90
15452;DHT22;7827;53.594;9.938;2022-08-20T01:33:20;19.80;99.90
15452;DHT22;7827;53.594;9.938;2022-08-20T01:35:51;19.80;99.90
15452;DHT22;7827;53.594;9.938;2022-08-20T01:38:20;19.80;99.90
15452;DHT22;7827;53.594;9.938;2022-08-20T01:41:07;19.80;99.90
15452;DHT22;7827;53.594;9.938;2022-08-20T01:43:44;19.80;99.90
15452;DHT22;7827;53.594;9.938;2022-08-20T01:46:15;19.70;99.90
15452;DHT22;7827;53.594;9.938;2022-08-20T01:48:45;19.70;99.90
15452;DHT22;7827;53.594;9.938;2022-08-20T01:51:16;19.70;99.90
15452;DHT22;7827;53.594;9.938;2022-08-20T01:53:50;19.80;99.90
15452;DHT22;7827;53.594;9.938;2022-08-20T01:56:24;19.80;99.90
15452;DHT22;7827;53.594;9.938;2022-08-20T01:58:57;19.70;99.90
15452;DHT22;7827;53.594;9.938;2022-08-20T02:01:30;19.80;99.90
15452;DHT22;7827;53.594;9.938;2022-08-20T02:04:13;19.80;99.90
15452;DHT22;7827;53.594;9.938;2022-08-20T02:06:45;19.80;99.90
15452;DHT22;7827;53.594;9.938;2022-08-20T02:09:24;19.70;99.90
15452;DHT22;7827;53.594;9.938;2022-08-20T02:11:57;19.70;99.90
15452;DHT22;7827;53.594;9.938;2022-08-20T02:14:27;19.70;99.90
15452;DHT22;7827;53.594;9.938;2022-08-20T02:16:55;19.70;99.90
15452;DHT22;7827;53.594;9.938;2022-08-20T02:19:28;19.80;99.90
15452;DHT22;7827;53.594;9.938;2022-08-20T02:22:03;19.80;99.90
15452;DHT22;7827;53.594;9.938;2022-08-20T02:24:38;19.80;99.90
15452;DHT22;7827;53.594;9.938;2022-08-20T02:27:08;19.80;99.90
15452;DHT22;7827;53.594;9.938;2022-08-20T02:29:37;19.80;99.90
15452;DHT22;7827;53.594;9.938;2022-08-20T02:32:06;19.80;99.90
15452;DHT22;7827;53.594;9.938;2022-08-20T02:34:55;19.80;99.90
15452;DHT22;7827;53.594;9.938;2022-08-20T02:37:23;19.80;99.90
15452;DHT22;7827;53.594;9.938;2022-08-20T02:39:51;19.80;99.90
15452;DHT22;7827;53.594;9.938;2022-08-20T02:42:21;19.80;99.90
15452;DHT22;7827;53.594;9.938;2022-08-20T02:44:49;19.80;99.90
15452;DHT22;7827;53.594;9.938;2022-08-20T02:47:19;19.70;99.90
15452;DHT22;7827;53.594;9.938;2022-08-20T02:49:48;19.70;99.90
15452;DHT22;7827;53.594;9.938;2022-08-20T02:52:16;19.70;99.90
15452;DHT22;7827;53.594;9.938;2022-08-20T02:54:44;19.70;99.90
15452;DHT22;7827;53.594;9.938;2022-08-20T02:57:16;19.60;99.90
15452;DHT22;7827;53.594;9.938;2022-08-20T02:59:48;19.60;99.90
15452;DHT22;7827;53.594;9.938;2022-08-20T03:02:17;19.70;99.90
15452;DHT22;7827;53.594;9.938;2022-08-20T03:04:47;19.70;99.90
15452;DHT22;7827;53.594;9.938;2022-08-20T03:07:16;19.70;99.90
15452;DHT22;7827;53.594;9.938;2022-08-20T03:09:44;19.60;99.90
15452;DHT22;7827;53.594;9.938;2022-08-20T03:12:13;19.60;99.90
15452;DHT22;7827;53.594;9.938;2022-08-20T03:14:41;19.60;99.90
15452;DHT22;7827;53.594;9.938;2022-08-20T03:17:11;19.60;99.90
15452;DHT22;7827;53.594;9.938;2022-08-20T03:19:39;19.60;99.90
15452;DHT22;7827;53.594;9.938;2022-08-20T03:22:07;19.70;99.90
15452;DHT22;7827;53.594;9.938;2022-08-20T03:24:36;19.60;99.90
15452;DHT22;7827;53.594;9.938;2022-08-20T03:27:04;19.60;99.90
15452;DHT22;7827;53.594;9.938;2022-08-20T03:29:34;19.60;99.90
15452;DHT22;7827;53.594;9.938;2022-08-20T03:32:02;19.60;99.90
15452;DHT22;7827;53.594;9.938;2022-08-20T03:34:35;19.70;99.90
15452;DHT22;7827;53.594;9.938;2022-08-20T03:37:03;19.60;99.90
15452;DHT22;7827;53.594;9.938;2022-08-20T03:39:32;19.60;99.90
15452;DHT22;7827;53.594;9.938;2022-08-20T03:42:00;19.50;99.90
15452;DHT22;7827;53.594;9.938;2022-08-20T03:44:28;19.50;99.90
15452;DHT22;7827;53.594;9.938;2022-08-20T03:46:57;19.50;99.90
15452;DHT22;7827;53.594;9.938;2022-08-20T03:49:25;19.50;99.90
15452;DHT22;7827;53.594;9.938;2022-08-20T03:51:55;19.60;99.90
15452;DHT22;7827;53.594;9.938;2022-08-20T03:54:24;19.60;99.90
15452;DHT22;7827;53.594;9.938;2022-08-20T03:56:58;19.60;99.90
15452;DHT22;7827;53.594;9.938;2022-08-20T03:59:27;19.70;99.90
15452;DHT22;7827;53.594;9.938;2022-08-20T04:01:58;19.60;99.90
15452;DHT22;7827;53.594;9.938;2022-08-20T04:04:27;19.70;99.90
15452;DHT22;7827;53.594;9.938;2022-08-20T04:06:57;19.70;99.90
15452;DHT22;7827;53.594;9.938;2022-08-20T04:09:25;19.70;99.90
15452;DHT22;7827;53.594;9.938;2022-08-20T04:11:53;19.70;99.90
15452;DHT22;7827;53.594;9.938;2022-08-20T04:14:24;19.70;99.90
15452;DHT22;7827;53.594;9.938;2022-08-20T04:16:55;19.70;99.90
15452;DHT22;7827;53.594;9.938;2022-08-20T04:19:24;19.70;99.90
15452;DHT22;7827;53.594;9.938;2022-08-20T04:21:59;19.70;99.90
15452;DHT22;7827;53.594;9.938;2022-08-20T04:24:28;19.70;99.90
15452;DHT22;7827;53.594;9.938;2022-08-20T04:26:59;19.70;99.90
15452;DHT22;7827;53.594;9.938;2022-08-20T04:29:29;19.70;99.90
15452;DHT22;7827;53.594;9.938;2022-08-20T04:32:02;19.80;99.90
15452;DHT22;7827;53.594;9.938;2022-08-20T04:34:33;19.80;99.90
15452;DHT22;7827;53.594;9.938;2022-08-20T04:37:04;19.80;99.90
15452;DHT22;7827;53.594;9.938;2022-08-20T04:39:43;19.90;99.90
15452;DHT22;7827;53.594;9.938;2022-08-20T04:42:33;19.90;99.90
15452;DHT22;7827;53.594;9.938;2022-08-20T04:45:02;19.90;99.90
15452;DHT22;7827;53.594;9.938;2022-08-20T04:47:34;19.90;99.90
15452;DHT22;7827;53.594;9.938;2022-08-20T04:50:03;20.00;99.90
15452;DHT22;7827;53.594;9.938;2022-08-20T04:52:38;20.00;99.90
15452;DHT22;7827;53.594;9.938;2022-08-20T04:55:07;20.10;99.90
15452;DHT22;7827;53.594;9.938;2022-08-20T04:57:36;20.10;99.90
15452;DHT22;7827;53.594;9.938;2022-08-20T05:00:07;20.10;99.90
15452;DHT22;7827;53.594;9.938;2022-08-20T05:02:38;20.20;99.90
15452;DHT22;7827;53.594;9.938;2022-08-20T05:05:08;20.20;99.90
15452;DHT22;7827;53.594;9.938;2022-08-20T05:07:40;20.20;99.90
15452;DHT22;7827;53.594;9.938;2022-08-20T05:10:12;20.30;99.90
15452;DHT22;7827;53.594;9.938;2022-08-20T05:12:42;20.20;99.90
15452;DHT22;7827;53.594;9.938;2022-08-20T05:15:23;20.20;99.90
15452;DHT22;7827;53.594;9.938;2022-08-20T05:17:54;20.20;99.90
15452;DHT22;7827;53.594;9.938;2022-08-20T05:20:26;20.20;99.90
15452;DHT22;7827;53.594;9.938;2022-08-20T05:22:58;20.20;99.90
15452;DHT22;7827;53.594;9.938;2022-08-20T05:25:29;20.20;99.90
15452;DHT22;7827;53.594;9.938;2022-08-20T05:27:59;20.20;99.90
15452;DHT22;7827;53.594;9.938;2022-08-20T05:30:29;20.30;99.90
15452;DHT22;7827;53.594;9.938;2022-08-20T05:33:01;20.30;99.90
15452;DHT22;7827;53.594;9.938;2022-08-20T05:35:31;20.30;99.90
15452;DHT22;7827;53.594;9.938;2022-08-20T05:38:03;20.30;99.90
15452;DHT22;7827;53.594;9.938;2022-08-20T05:40:33;20.30;99.90
15452;DHT22;7827;53.594;9.938;2022-08-20T05:43:02;20.30;99.90
15452;DHT22;7827;53.594;9.938;2022-08-20T05:45:32;20.30;99.90
15452;DHT22;7827;53.594;9.938;2022-08-20T05:48:04;20.40;99.90
15452;DHT22;7827;53.594;9.938;2022-08-20T05:50:33;20.40;99.90
15452;DHT22;7827;53.594;9.938;2022-08-20T05:53:04;20.50;99.90
15452;DHT22;7827;53.594;9.938;2022-08-20T05:55:33;20.50;99.90
15452;DHT22;7827;53.594;9.938;2022-08-20T05:58:05;20.50;99.90
15452;DHT22;7827;53.594;9.938;2022-08-20T06:00:35;20.60;99.90
15452;DHT22;7827;53.594;9.938;2022-08-20T06:03:04;20.60;99.90
15452;DHT22;7827;53.594;9.938;2022-08-20T06:05:50;20.60;99.90
15452;DHT22;7827;53.594;9.938;2022-08-20T06:08:20;20.60;99.90
15452;DHT22;7827;53.594;9.938;2022-08-20T06:10:50;20.60;99.90
15452;DHT22;7827;53.594;9.938;2022-08-20T06:13:18;20.60;99.90
15452;DHT22;7827;53.594;9.938;2022-08-20T06:15:47;20.60;99.90
15452;DHT22;7827;53.594;9.938;2022-08-20T06:18:16;20.70;99.90
15452;DHT22;7827;53.594;9.938;2022-08-20T06:20:54;20.70;99.90
15452;DHT22;7827;53.594;9.938;2022-08-20T06:23:24;20.60;99.90
15452;DHT22;7827;53.594;9.938;2022-08-20T06:26:13;20.60;99.90
15452;DHT22;7827;53.594;9.938;2022-08-20T06:28:50;20.60;99.90
15452;DHT22;7827;53.594;9.938;2022-08-20T06:31:20;20.70;99.90
15452;DHT22;7827;53.594;9.938;2022-08-20T06:33:48;20.70;99.90
15452;DHT22;7827;53.594;9.938;2022-08-20T06:36:17;20.70;99.90
15452;DHT22;7827;53.594;9.938;2022-08-20T06:38:47;20.80;99.90
15452;DHT22;7827;53.594;9.938;2022-08-20T06:41:16;21.00;99.90
15452;DHT22;7827;53.594;9.938;2022-08-20T06:43:44;21.10;99.90
15452;DHT22;7827;53.594;9.938;2022-08-20T06:46:13;21.30;99.90
15452;DHT22;7827;53.594;9.938;2022-08-20T06:48:41;21.40;99.90
15452;DHT22;7827;53.594;9.938;2022-08-20T06:51:09;21.50;99.90
15452;DHT22;7827;53.594;9.938;2022-08-20T06:53:38;21.60;99.90
15452;DHT22;7827;53.594;9.938;2022-08-20T06:56:08;21.60;99.90
15452;DHT22;7827;53.594;9.938;2022-08-20T06:58:36;21.60;99.90
15452;DHT22;7827;53.594;9.938;2022-08-20T07:01:05;21.70;99.90
15452;DHT22;7827;53.594;9.938;2022-08-20T07:03:36;21.80;99.90
15452;DHT22;7827;53.594;9.938;2022-08-20T07:06:20;21.90;99.90
15452;DHT22;7827;53.594;9.938;2022-08-20T07:08:48;21.90;99.90
15452;DHT22;7827;53.594;9.938;2022-08-20T07:11:18;21.80;99.90
15452;DHT22;7827;53.594;9.938;2022-08-20T07:13:55;21.80;99.90
15452;DHT22;7827;53.594;9.938;2022-08-20T07:16:24;21.90;99.90
15452;DHT22;7827;53.594;9.938;2022-08-20T07:18:53;21.90;99.90
15452;DHT22;7827;53.594;9.938;2022-08-20T07:21:21;21.90;99.90
15452;DHT22;7827;53.594;9.938;2022-08-20T07:23:50;21.90;99.90
15452;DHT22;7827;53.594;9.938;2022-08-20T07:26:20;22.00;99.90
15452;DHT22;7827;53.594;9.938;2022-08-20T07:28:49;22.00;99.90
15452;DHT22;7827;53.594;9.938;2022-08-20T07:31:18;22.10;99.90
15452;DHT22;7827;53.594;9.938;2022-08-20T07:34:08;22.20;99.90
15452;DHT22;7827;53.594;9.938;2022-08-20T07:36:37;22.20;99.90
15452;DHT22;7827;53.594;9.938;2022-08-20T07:39:06;22.30;99.90
15452;DHT22;7827;53.594;9.938;2022-08-20T07:41:36;22.30;99.90
15452;DHT22;7827;53.594;9.938;2022-08-20T07:44:04;22.40;99.90
15452;DHT22;7827;53.594;9.938;2022-08-20T07:46:33;22.30;99.90
15452;DHT22;7827;53.594;9.938;2022-08-20T07:49:02;22.40;99.90
15452;DHT22;7827;53.594;9.938;2022-08-20T07:51:35;22.30;99.90
15452;DHT22;7827;53.594;9.938;2022-08-20T07:54:04;22.20;99.90
15452;DHT22;7827;53.594;9.938;2022-08-20T07:56:35;22.20;99.90
15452;DHT22;7827;53.594;9.938;2022-08-20T07:59:05;22.30;99.90
15452;DHT22;7827;53.594;9.938;2022-08-20T08:01:33;22.30;99.90
15452;DHT22;7827;53.594;9.938;2022-08-20T08:04:02;22.20;99.90
15452;DHT22;7827;53.594;9.938;2022-08-20T08:06:30;22.40;99.90
15452;DHT22;7827;53.594;9.938;2022-08-20T08:09:03;22.50;99.90
15452;DHT22;7827;53.594;9.938;2022-08-20T08:11:37;22.70;99.90
15452;DHT22;7827;53.594;9.938;2022-08-20T08:14:13;22.80;99.90
15452;DHT22;7827;53.594;9.938;2022-08-20T08:16:49;22.70;99.90
15452;DHT22;7827;53.594;9.938;2022-08-20T08:19:18;22.70;99.90
15452;DHT22;7827;53.594;9.938;2022-08-20T08:21:48;22.80;99.90
15452;DHT22;7827;53.594;9.938;2022-08-20T08:24:16;22.80;99.90
15452;DHT22;7827;53.594;9.938;2022-08-20T08:26:51;22.90;99.90
15452;DHT22;7827;53.594;9.938;2022-08-20T08:29:21;22.90;99.90
15452;DHT22;7827;53.594;9.938;2022-08-20T08:31:49;23.00;99.90
15452;DHT22;7827;53.594;9.938;2022-08-20T08:34:17;23.00;99.90
15452;DHT22;7827;53.594;9.938;2022-08-20T08:36:46;23.10;99.90
15452;DHT22;7827;53.594;9.938;2022-08-20T08:39:14;23.20;99.90
15452;DHT22;7827;53.594;9.938;2022-08-20T08:41:45;23.20;99.90
15452;DHT22;7827;53.594;9.938;2022-08-20T08:44:20;23.40;99.90
15452;DHT22;7827;53.594;9.938;2022-08-20T08:46:56;23.50;99.90
15452;DHT22;7827;53.594;9.938;2022-08-20T08:49:31;23.70;99.90
15452;DHT22;7827;53.594;9.938;2022-08-20T08:52:06;23.70;99.90
15452;DHT22;7827;53.594;9.938;2022-08-20T08:54:41;23.70;99.90
15452;DHT22;7827;53.594;9.938;2022-08-20T08:57:14;23.90;99.90
15452;DHT22;7827;53.594;9.938;2022-08-20T08:59:47;24.00;99.90
15452;DHT22;7827;53.594;9.938;2022-08-20T09:02:32;23.90;99.90
15452;DHT22;7827;53.594;9.938;2022-08-20T09:05:11;24.00;99.90
15452;DHT22;7827;53.594;9.938;2022-08-20T09:07:45;24.00;99.90
15452;DHT22;7827;53.594;9.938;2022-08-20T09:10:19;23.90;99.90
15452;DHT22;7827;53.594;9.938;2022-08-20T09:12:49;23.70;99.90
15452;DHT22;7827;53.594;9.938;2022-08-20T09:15:20;23.60;99.90
15452;DHT22;7827;53.594;9.938;2022-08-20T09:17:48;23.40;99.90
15452;DHT22;7827;53.594;9.938;2022-08-20T09:20:17;23.50;99.90
15452;DHT22;7827;53.594;9.938;2022-08-20T09:22:51;23.40;99.90
15452;DHT22;7827;53.594;9.938;2022-08-20T09:25:20;23.40;99.90
15452;DHT22;7827;53.594;9.938;2022-08-20T09:27:49;23.60;99.90
15452;DHT22;7827;53.594;9.938;2022-08-20T09:30:19;23.70;99.90
15452;DHT22;7827;53.594;9.938;2022-08-20T09:32:49;23.70;99.90
15452;DHT22;7827;53.594;9.938;2022-08-20T09:35:17;23.70;99.90
15452;DHT22;7827;53.594;9.938;2022-08-20T09:37:45;23.70;99.90
15452;DHT22;7827;53.594;9.938;2022-08-20T09:40:17;23.80;99.90
15452;DHT22;7827;53.594;9.938;2022-08-20T09:42:48;23.90;99.90
15452;DHT22;7827;53.594;9.938;2022-08-20T09:45:19;24.00;99.90
15452;DHT22;7827;53.594;9.938;2022-08-20T09:47:47;24.10;99.90
15452;DHT22;7827;53.594;9.938;2022-08-20T09:50:23;24.00;99.90
15452;DHT22;7827;53.594;9.938;2022-08-20T09:52:53;23.90;99.90
15452;DHT22;7827;53.594;9.938;2022-08-20T09:55:27;23.90;99.90
15452;DHT22;7827;53.594;9.938;2022-08-20T09:58:02;23.90;99.90
15452;DHT22;7827;53.594;9.938;2022-08-20T10:00:35;24.10;99.90
15452;DHT22;7827;53.594;9.938;2022-08-20T10:03:04;24.20;99.90
15452;DHT22;7827;53.594;9.938;2022-08-20T10:05:32;24.20;99.90
15452;DHT22;7827;53.594;9.938;2022-08-20T10:08:04;24.20;99.90
15452;DHT22;7827;53.594;9.938;2022-08-20T10:10:32;24.10;99.90
15452;DHT22;7827;53.594;9.938;2022-08-20T10:13:01;24.00;99.90
15452;DHT22;7827;53.594;9.938;2022-08-20T10:15:30;23.90;99.90
15452;DHT22;7827;53.594;9.938;2022-08-20T10:18:02;24.10;99.90
15452;DHT22;7827;53.594;9.938;2022-08-20T10:20:34;24.00;99.90
15452;DHT22;7827;53.594;9.938;2022-08-20T10:23:03;24.10;99.90
15452;DHT22;7827;53.594;9.938;2022-08-20T10:25:32;24.00;99.90
15452;DHT22;7827;53.594;9.938;2022-08-20T10:28:00;24.10;99.90
15452;DHT22;7827;53.594;9.938;2022-08-20T10:30:29;24.10;99.90
15452;DHT22;7827;53.594;9.938;2022-08-20T10:32:57;24.20;99.90
15452;DHT22;7827;53.594;9.938;2022-08-20T10:35:27;24.40;99.90
15452;DHT22;7827;53.594;9.938;2022-08-20T10:37:56;24.40;99.90
15452;DHT22;7827;53.594;9.938;2022-08-20T10:40:25;24.40;99.90
15452;DHT22;7827;53.594;9.938;2022-08-20T10:42:53;24.60;99.90
15452;DHT22;7827;53.594;9.938;2022-08-20T10:45:21;24.50;99.90
15452;DHT22;7827;53.594;9.938;2022-08-20T10:47:51;24.60;99.90
15452;DHT22;7827;53.594;9.938;2022-08-20T10:50:19;24.30;99.90
15452;DHT22;7827;53.594;9.938;2022-08-20T10:52:49;24.30;99.90
15452;DHT22;7827;53.594;9.938;2022-08-20T10:55:19;24.30;99.90
15452;DHT22;7827;53.594;9.938;2022-08-20T10:57:47;24.30;99.90
15452;DHT22;7827;53.594;9.938;2022-08-20T11:00:17;24.20;99.90
15452;DHT22;7827;53.594;9.938;2022-08-20T11:02:45;24.10;99.90
15452;DHT22;7827;53.594;9.938;2022-08-20T11:05:14;24.10;99.90
15452;DHT22;7827;53.594;9.938;2022-08-20T11:07:43;24.00;99.90
15452;DHT22;7827;53.594;9.938;2022-08-20T11:10:28;23.90;99.90
15452;DHT22;7827;53.594;9.938;2022-08-20T11:12:59;23.80;99.90
15452;DHT22;7827;53.594;9.938;2022-08-20T11:15:28;23.80;99.90
15452;DHT22;7827;53.594;9.938;2022-08-20T11:17:56;24.10;99.90
15452;DHT22;7827;53.594;9.938;2022-08-20T11:20:25;24.10;99.90
15452;DHT22;7827;53.594;9.938;2022-08-20T11:22:53;24.10;99.90
15452;DHT22;7827;53.594;9.938;2022-08-20T11:25:22;24.10;99.90
15452;DHT22;7827;53.594;9.938;2022-08-20T11:27:54;24.10;99.90
15452;DHT22;7827;53.594;9.938;2022-08-20T11:30:26;24.20;99.90
15452;DHT22;7827;53.594;9.938;2022-08-20T11:32:57;24.10;99.90
15452;DHT22;7827;53.594;9.938;2022-08-20T11:35:30;24.10;99.90
15452;DHT22;7827;53.594;9.938;2022-08-20T11:38:15;24.30;99.90
15452;DHT22;7827;53.594;9.938;2022-08-20T11:40:45;24.30;99.90
15452;DHT22;7827;53.594;9.938;2022-08-20T11:43:15;24.40;99.90
15452;DHT22;7827;53.594;9.938;2022-08-20T11:45:46;24.40;99.90
15452;DHT22;7827;53.594;9.938;2022-08-20T11:48:17;24.20;99.90
15452;DHT22;7827;53.594;9.938;2022-08-20T11:50:46;24.20;99.90
15452;DHT22;7827;53.594;9.938;2022-08-20T11:53:15;24.30;99.90
15452;DHT22;7827;53.594;9.938;2022-08-20T11:55:45;24.40;99.90
15452;DHT22;7827;53.594;9.938;2022-08-20T11:58:16;24.50;99.90
15452;DHT22;7827;53.594;9.938;2022-08-20T12:00:44;24.50;99.90
15452;DHT22;7827;53.594;9.938;2022-08-20T12:03:13;24.50;99.90
15452;DHT22;7827;53.594;9.938;2022-08-20T12:05:43;24.50;99.90
15452;DHT22;7827;53.594;9.938;2022-08-20T12:08:14;24.60;99.90
15452;DHT22;7827;53.594;9.938;2022-08-20T12:10:54;24.60;99.90
15452;DHT22;7827;53.594;9.938;2022-08-20T12:13:24;24.70;99.90
15452;DHT22;7827;53.594;9.938;2022-08-20T12:16:13;24.80;99.90
15452;DHT22;7827;53.594;9.938;2022-08-20T12:18:41;24.80;99.90
15452;DHT22;7827;53.594;9.938;2022-08-20T12:21:10;24.80;99.90
15452;DHT22;7827;53.594;9.938;2022-08-20T12:23:38;24.80;99.90
15452;DHT22;7827;53.594;9.938;2022-08-20T12:26:07;24.80;99.90
15452;DHT22;7827;53.594;9.938;2022-08-20T12:28:37;24.90;99.90
15452;DHT22;7827;53.594;9.938;2022-08-20T12:31:05;24.80;99.90
15452;DHT22;7827;53.594;9.938;2022-08-20T12:33:34;24.80;99.90
15452;DHT22;7827;53.594;9.938;2022-08-20T12:36:02;24.70;99.90
15452;DHT22;7827;53.594;9.938;2022-08-20T12:38:31;24.70;99.90
15452;DHT22;7827;53.594;9.938;2022-08-20T12:40:59;24.80;99.90
15452;DHT22;7827;53.594;9.938;2022-08-20T12:43:28;24.60;99.90
15452;DHT22;7827;53.594;9.938;2022-08-20T12:45:57;24.60;99.90
15452;DHT22;7827;53.594;9.938;2022-08-20T12:48:26;24.60;99.90
15452;DHT22;7827;53.594;9.938;2022-08-20T12:50:54;24.60;99.90
15452;DHT22;7827;53.594;9.938;2022-08-20T12:53:22;24.60;99.90
15452;DHT22;7827;53.594;9.938;2022-08-20T12:55:51;24.70;99.90
15452;DHT22;7827;53.594;9.938;2022-08-20T12:58:19;24.60;99.90
15452;DHT22;7827;53.594;9.938;2022-08-20T13:00:47;24.70;99.90
15452;DHT22;7827;53.594;9.938;2022-08-20T13:03:18;24.80;99.90
15452;DHT22;7827;53.594;9.938;2022-08-20T13:05:47;24.70;99.90
15452;DHT22;7827;53.594;9.938;2022-08-20T13:08:16;24.70;99.90
15452;DHT22;7827;53.594;9.938;2022-08-20T13:10:45;24.80;99.90
15452;DHT22;7827;53.594;9.938;2022-08-20T13:13:16;24.90;99.90
15452;DHT22;7827;53.594;9.938;2022-08-20T13:15:47;24.80;99.90
15452;DHT22;7827;53.594;9.938;2022-08-20T13:18:19;25.00;99.90
15452;DHT22;7827;53.594;9.938;2022-08-20T13:20:47;25.00;99.90
15452;DHT22;7827;53.594;9.938;2022-08-20T13:23:16;24.90;99.90
15452;DHT22;7827;53.594;9.938;2022-08-20T13:25:44;24.90;99.90
15452;DHT22;7827;53.594;9.938;2022-08-20T13:28:13;25.00;99.90
15452;DHT22;7827;53.594;9.938;2022-08-20T13:30:41;24.90;99.90
15452;DHT22;7827;53.594;9.938;2022-08-20T13:33:09;24.80;99.90
15452;DHT22;7827;53.594;9.938;2022-08-20T13:35:39;24.80;99.90
15452;DHT22;7827;53.594;9.938;2022-08-20T13:38:07;24.80;99.90
15452;DHT22;7827;53.594;9.938;2022-08-20T13:40:36;24.80;99.90
15452;DHT22;7827;53.594;9.938;2022-08-20T13:43:05;24.80;99.90
15452;DHT22;7827;53.594;9.938;2022-08-20T13:45:38;24.80;99.90
15452;DHT22;7827;53.594;9.938;2022-08-20T13:48:08;24.80;99.90
15452;DHT22;7827;53.594;9.938;2022-08-20T13:50:42;24.60;99.90
15452;DHT22;7827;53.594;9.938;2022-08-20T13:53:13;24.70;99.90
15452;DHT22;7827;53.594;9.938;2022-08-20T13:55:43;24.60;99.90
15452;DHT22;7827;53.594;9.938;2022-08-20T13:58:12;24.50;99.90
15452;DHT22;7827;53.594;9.938;2022-08-20T14:00:40;24.60;99.90
15452;DHT22;7827;53.594;9.938;2022-08-20T14:03:09;24.60;99.90
15452;DHT22;7827;53.594;9.938;2022-08-20T14:05:39;24.60;99.90
15452;DHT22;7827;53.594;9.938;2022-08-20T14:08:11;24.60;99.90
15452;DHT22;7827;53.594;9.938;2022-08-20T14:10:41;24.50;99.90
15452;DHT22;7827;53.594;9.938;2022-08-20T14:13:12;24.40;99.90
15452;DHT22;7827;53.594;9.938;2022-08-20T14:15:42;24.40;99.90
15452;DHT22;7827;53.594;9.938;2022-08-20T14:18:11;24.30;99.90
15452;DHT22;7827;53.594;9.938;2022-08-20T14:20:40;24.20;99.90
15452;DHT22;7827;53.594;9.938;2022-08-20T14:23:13;24.20;99.90
15452;DHT22;7827;53.594;9.938;2022-08-20T14:25:44;24.30;99.90
15452;DHT22;7827;53.594;9.938;2022-08-20T14:28:17;24.50;99.90
15452;DHT22;7827;53.594;9.938;2022-08-20T14:30:47;24.50;99.90
15452;DHT22;7827;53.594;9.938;2022-08-20T14:33:20;24.50;99.90
15452;DHT22;7827;53.594;9.938;2022-08-20T14:35:49;24.40;99.90
15452;DHT22;7827;53.594;9.938;2022-08-20T14:38:19;24.30;99.90
15452;DHT22;7827;53.594;9.938;2022-08-20T14:40:48;24.20;99.90
15452;DHT22;7827;53.594;9.938;2022-08-20T14:43:17;24.30;99.90
15452;DHT22;7827;53.594;9.938;2022-08-20T14:45:45;24.40;99.90
15452;DHT22;7827;53.594;9.938;2022-08-20T14:48:13;24.30;99.90
15452;DHT22;7827;53.594;9.938;2022-08-20T14:50:41;24.20;99.90
15452;DHT22;7827;53.594;9.938;2022-08-20T14:53:10;24.10;99.90
15452;DHT22;7827;53.594;9.938;2022-08-20T14:55:39;24.10;99.90
15452;DHT22;7827;53.594;9.938;2022-08-20T14:58:09;24.10;99.90
15452;DHT22;7827;53.594;9.938;2022-08-20T15:00:39;24.00;99.90
15452;DHT22;7827;53.594;9.938;2022-08-20T15:03:08;24.00;99.90
15452;DHT22;7827;53.594;9.938;2022-08-20T15:05:36;24.00;99.90
15452;DHT22;7827;53.594;9.938;2022-08-20T15:08:06;24.00;99.90
15452;DHT22;7827;53.594;9.938;2022-08-20T15:10:37;24.10;99.90
15452;DHT22;7827;53.594;9.938;2022-08-20T15:13:07;24.20;99.90
15452;DHT22;7827;53.594;9.938;2022-08-20T15:15:36;24.30;99.90
15452;DHT22;7827;53.594;9.938;2022-08-20T15:18:05;24.30;99.90
15452;DHT22;7827;53.594;9.938;2022-08-20T15:20:35;24.20;99.90
15452;DHT22;7827;53.594;9.938;2022-08-20T15:23:04;24.10;99.90
15452;DHT22;7827;53.594;9.938;2022-08-20T15:25:34;24.00;99.90
15452;DHT22;7827;53.594;9.938;2022-08-20T15:28:07;24.00;99.90
15452;DHT22;7827;53.594;9.938;2022-08-20T15:30:37;23.90;99.90
15452;DHT22;7827;53.594;9.938;2022-08-20T15:33:08;24.10;99.90
15452;DHT22;7827;53.594;9.938;2022-08-20T15:35:37;24.10;99.90
15452;DHT22;7827;53.594;9.938;2022-08-20T15:38:06;24.10;99.90
15452;DHT22;7827;53.594;9.938;2022-08-20T15:40:34;24.00;99.90
15452;DHT22;7827;53.594;9.938;2022-08-20T15:43:05;24.10;99.90
15452;DHT22;7827;53.594;9.938;2022-08-20T15:45:35;24.10;99.90
15452;DHT22;7827;53.594;9.938;2022-08-20T15:48:10;24.10;99.90
15452;DHT22;7827;53.594;9.938;2022-08-20T15:50:54;24.10;99.90
15452;DHT22;7827;53.594;9.938;2022-08-20T15:53:34;24.20;99.90
15452;DHT22;7827;53.594;9.938;2022-08-20T15:56:15;24.30;99.90
15452;DHT22;7827;53.594;9.938;2022-08-20T15:59:00;24.40;99.90
15452;DHT22;7827;53.594;9.938;2022-08-20T16:01:44;24.30;99.90
15452;DHT22;7827;53.594;9.938;2022-08-20T16:04:33;24.30;99.90
15452;DHT22;7827;53.594;9.938;2022-08-20T16:07:17;24.30;99.90
15452;DHT22;7827;53.594;9.938;2022-08-20T16:10:00;24.20;99.90